DEBGN EDDG-EDXH
Flight info
| Callsign | DEBGN |
|---|---|
| Flight time | 0h 56m |
| Altitude | |
| Route | |
| Aircraft | H100 |
Departure
| Time | 2026-04-22 19:20 |
|---|---|
| Airport | Münster Osnabrück Airport (EDDG) |
Arrival
| Time | 2026-04-22 20:16 |
|---|---|
| Airport | Helgoland-Düne Airport (EDXH) |
| Time | Latitude | Longitude | Altitude | Speed | Heading |
|---|---|---|---|---|---|
| 2026-04-22 19:07 | 52.13189 | 7.68701 | 159 ft | 0 kts | 161° |
| 2026-04-22 19:15 | 52.13183 | 7.68704 | 162 ft | 4 kts | 161° |
| 2026-04-22 19:15 | 52.13178 | 7.68706 | 162 ft | 0 kts | 161° |
| 2026-04-22 19:15 | 52.13176 | 7.68729 | 162 ft | 7 kts | 70° |
| 2026-04-22 19:16 | 52.13206 | 7.68865 | 161 ft | 16 kts | 70° |
| 2026-04-22 19:16 | 52.13277 | 7.68883 | 159 ft | 2 kts | 347° |
| 2026-04-22 19:16 | 52.13294 | 7.68882 | 159 ft | 0 kts | 1° |
| 2026-04-22 19:17 | 52.13326 | 7.68867 | 162 ft | 12 kts | 346° |
| 2026-04-22 19:17 | 52.13396 | 7.68988 | 160 ft | 21 kts | 71° |
| 2026-04-22 19:17 | 52.13454 | 7.69256 | 161 ft | 28 kts | 72° |
| 2026-04-22 19:17 | 52.13522 | 7.69578 | 161 ft | 32 kts | 71° |
| 2026-04-22 19:18 | 52.13585 | 7.69880 | 159 ft | 28 kts | 72° |
| 2026-04-22 19:18 | 52.13700 | 7.70028 | 158 ft | 16 kts | 344° |
| 2026-04-22 19:18 | 52.13710 | 7.70020 | 158 ft | 0 kts | 326° |
| 2026-04-22 19:19 | 52.13758 | 7.69967 | 159 ft | 16 kts | 302° |
| 2026-04-22 19:19 | 52.13709 | 7.69661 | 163 ft | 54 kts | 250° |
| 2026-04-22 19:19 | 52.13522 | 7.68760 | 170 ft | 108 kts | 250° |
| 2026-04-22 19:19 | 52.13218 | 7.67526 | 437 ft | 118 kts | 250° |
| 2026-04-22 19:20 | 52.13037 | 7.66235 | 908 ft | 119 kts | 281° |
| 2026-04-22 19:20 | 52.13340 | 7.65004 | 1278 ft | 120 kts | 308° |
| 2026-04-22 19:20 | 52.13835 | 7.63860 | 1677 ft | 125 kts | 311° |
| 2026-04-22 19:20 | 52.14360 | 7.62743 | 2146 ft | 122 kts | 314° |
| 2026-04-22 19:21 | 52.14917 | 7.61659 | 2504 ft | 126 kts | 318° |
| 2026-04-22 19:21 | 52.15452 | 7.60585 | 2973 ft | 122 kts | 311° |
| 2026-04-22 19:21 | 52.15976 | 7.59424 | 3235 ft | 131 kts | 313° |
| 2026-04-22 19:21 | 52.16506 | 7.58243 | 3657 ft | 128 kts | 312° |
| 2026-04-22 19:22 | 52.17092 | 7.57062 | 3856 ft | 145 kts | 313° |
| 2026-04-22 19:22 | 52.17804 | 7.55763 | 3829 ft | 158 kts | 315° |
| 2026-04-22 19:22 | 52.18541 | 7.54418 | 3871 ft | 164 kts | 311° |
| 2026-04-22 19:22 | 52.19229 | 7.52909 | 3909 ft | 166 kts | 311° |
| 2026-04-22 19:23 | 52.20095 | 7.51858 | 4044 ft | 153 kts | 345° |
| 2026-04-22 19:23 | 52.21161 | 7.51703 | 4002 ft | 155 kts | 9° |
| 2026-04-22 19:23 | 52.22234 | 7.52161 | 3883 ft | 159 kts | 18° |
| 2026-04-22 19:23 | 52.23239 | 7.52699 | 4051 ft | 145 kts | 30° |
| 2026-04-22 19:24 | 52.24015 | 7.53725 | 4171 ft | 144 kts | 48° |
| 2026-04-22 19:24 | 52.24671 | 7.54984 | 4193 ft | 148 kts | 49° |
| 2026-04-22 19:24 | 52.25171 | 7.56391 | 4251 ft | 146 kts | 78° |
| 2026-04-22 19:24 | 52.25053 | 7.58060 | 4246 ft | 152 kts | 102° |
| 2026-04-22 19:25 | 52.24749 | 7.59734 | 4245 ft | 155 kts | 103° |
| 2026-04-22 19:25 | 52.24428 | 7.61427 | 4239 ft | 157 kts | 104° |
| 2026-04-22 19:25 | 52.24098 | 7.63132 | 4238 ft | 158 kts | 104° |
| 2026-04-22 19:25 | 52.23772 | 7.64854 | 4238 ft | 160 kts | 105° |
| 2026-04-22 19:26 | 52.23462 | 7.66608 | 4234 ft | 162 kts | 100° |
| 2026-04-22 19:26 | 52.23367 | 7.68422 | 4220 ft | 160 kts | 84° |
| 2026-04-22 19:26 | 52.23540 | 7.70197 | 4224 ft | 158 kts | 73° |
| 2026-04-22 19:26 | 52.23884 | 7.71901 | 4208 ft | 158 kts | 67° |
| 2026-04-22 19:27 | 52.24316 | 7.73537 | 4215 ft | 157 kts | 64° |
| 2026-04-22 19:27 | 52.24793 | 7.75147 | 4234 ft | 158 kts | 62° |
| 2026-04-22 19:27 | 52.25295 | 7.76758 | 4261 ft | 160 kts | 61° |
| 2026-04-22 19:27 | 52.25805 | 7.78385 | 4247 ft | 162 kts | 62° |
| 2026-04-22 19:28 | 52.26320 | 7.80020 | 4240 ft | 163 kts | 62° |
| 2026-04-22 19:28 | 52.26844 | 7.81668 | 4233 ft | 164 kts | 61° |
| 2026-04-22 19:28 | 52.27370 | 7.83311 | 4223 ft | 163 kts | 61° |
| 2026-04-22 19:28 | 52.27894 | 7.84949 | 4226 ft | 163 kts | 60° |
| 2026-04-22 19:29 | 52.28419 | 7.86586 | 4214 ft | 162 kts | 62° |
| 2026-04-22 19:29 | 52.28936 | 7.88241 | 4232 ft | 164 kts | 62° |
| 2026-04-22 19:29 | 52.29459 | 7.89895 | 4213 ft | 163 kts | 61° |
| 2026-04-22 19:29 | 52.29982 | 7.91529 | 4224 ft | 162 kts | 60° |
| 2026-04-22 19:30 | 52.30152 | 7.92055 | 4226 ft | 162 kts | 61° |
| 2026-04-22 19:30 | 52.31013 | 7.94804 | 4212 ft | 162 kts | 61° |
| 2026-04-22 19:30 | 52.31527 | 7.96441 | 4208 ft | 162 kts | 61° |
| 2026-04-22 19:30 | 52.32069 | 7.98052 | 4230 ft | 162 kts | 53° |
| 2026-04-22 19:31 | 52.32912 | 7.99233 | 4227 ft | 161 kts | 26° |
| 2026-04-22 19:31 | 52.33818 | 7.99703 | 4215 ft | 161 kts | 15° |
| 2026-04-22 19:31 | 52.34896 | 8.00214 | 4225 ft | 161 kts | 17° |
| 2026-04-22 19:31 | 52.35970 | 8.00758 | 4235 ft | 162 kts | 17° |
| 2026-04-22 19:32 | 52.37049 | 8.01297 | 4222 ft | 162 kts | 17° |
| 2026-04-22 19:32 | 52.38126 | 8.01831 | 4215 ft | 162 kts | 17° |
| 2026-04-22 19:32 | 52.39204 | 8.02360 | 4224 ft | 162 kts | 17° |
| 2026-04-22 19:32 | 52.40288 | 8.02894 | 4229 ft | 163 kts | 17° |
| 2026-04-22 19:33 | 52.41370 | 8.03433 | 4230 ft | 162 kts | 17° |
| 2026-04-22 19:33 | 52.42468 | 8.03961 | 4208 ft | 164 kts | 15° |
| 2026-04-22 19:33 | 52.43574 | 8.04415 | 4172 ft | 166 kts | 11° |
| 2026-04-22 19:33 | 52.44720 | 8.04750 | 4140 ft | 168 kts | 9° |
| 2026-04-22 19:34 | 52.45872 | 8.05063 | 4047 ft | 168 kts | 10° |
| 2026-04-22 19:34 | 52.47005 | 8.05410 | 4036 ft | 164 kts | 11° |
| 2026-04-22 19:34 | 52.48125 | 8.05800 | 4027 ft | 162 kts | 19° |
| 2026-04-22 19:34 | 52.49177 | 8.06419 | 4057 ft | 162 kts | 19° |
| 2026-04-22 19:35 | 52.50242 | 8.07059 | 4078 ft | 160 kts | 18° |
| 2026-04-22 19:35 | 52.51298 | 8.07612 | 4101 ft | 160 kts | 15° |
| 2026-04-22 19:35 | 52.52022 | 8.07957 | 4115 ft | 160 kts | 15° |
| 2026-04-22 19:35 | 52.53434 | 8.08647 | 4149 ft | 160 kts | 17° |
| 2026-04-22 19:36 | 52.54531 | 8.09173 | 4096 ft | 166 kts | 15° |
| 2026-04-22 19:36 | 52.55647 | 8.09686 | 4116 ft | 163 kts | 15° |
| 2026-04-22 19:36 | 52.56702 | 8.10206 | 4258 ft | 155 kts | 15° |
| 2026-04-22 19:36 | 52.57738 | 8.10657 | 4354 ft | 154 kts | 13° |
| 2026-04-22 19:37 | 52.58788 | 8.11079 | 4378 ft | 156 kts | 12° |
| 2026-04-22 19:37 | 52.59845 | 8.11447 | 4480 ft | 155 kts | 13° |
| 2026-04-22 19:37 | 52.60881 | 8.11964 | 4549 ft | 155 kts | 19° |
| 2026-04-22 19:37 | 52.61912 | 8.12609 | 4512 ft | 160 kts | 19° |
| 2026-04-22 19:38 | 52.62933 | 8.13107 | 4737 ft | 148 kts | 14° |
| 2026-04-22 19:38 | 52.63947 | 8.13570 | 4734 ft | 156 kts | 15° |
| 2026-04-22 19:38 | 52.64997 | 8.14066 | 4787 ft | 157 kts | 14° |
| 2026-04-22 19:38 | 52.66051 | 8.14505 | 4847 ft | 156 kts | 12° |
| 2026-04-22 19:39 | 52.67120 | 8.14896 | 4789 ft | 161 kts | 13° |
| 2026-04-22 19:39 | 52.68239 | 8.15375 | 4601 ft | 171 kts | 15° |
| 2026-04-22 19:39 | 52.69385 | 8.15944 | 4457 ft | 173 kts | 17° |
| 2026-04-22 19:39 | 52.70528 | 8.16578 | 4386 ft | 172 kts | 19° |
| 2026-04-22 19:40 | 52.71636 | 8.17241 | 4411 ft | 169 kts | 19° |
| 2026-04-22 19:40 | 52.72724 | 8.17880 | 4461 ft | 163 kts | 17° |
| 2026-04-22 19:40 | 52.73777 | 8.18489 | 4522 ft | 160 kts | 17° |
| 2026-04-22 19:40 | 52.74833 | 8.19085 | 4538 ft | 160 kts | 18° |
| 2026-04-22 19:41 | 52.75902 | 8.19694 | 4495 ft | 164 kts | 18° |
| 2026-04-22 19:41 | 52.76988 | 8.20294 | 4496 ft | 162 kts | 15° |
| 2026-04-22 19:41 | 52.78096 | 8.20644 | 4388 ft | 164 kts | 5° |
| 2026-04-22 19:41 | 52.79239 | 8.20757 | 4350 ft | 164 kts | 1° |
| 2026-04-22 19:42 | 52.80380 | 8.20798 | 4352 ft | 164 kts | 1° |
| 2026-04-22 19:42 | 52.81511 | 8.20769 | 4399 ft | 160 kts | 357° |
| 2026-04-22 19:42 | 52.82642 | 8.20658 | 4279 ft | 165 kts | 359° |
| 2026-04-22 19:42 | 52.83752 | 8.20712 | 4417 ft | 155 kts | 3° |
| 2026-04-22 19:43 | 52.85943 | 8.21115 | 4363 ft | 161 kts | 7° |
| 2026-04-22 19:43 | 52.87060 | 8.21341 | 4314 ft | 162 kts | 5° |
| 2026-04-22 19:43 | 52.88174 | 8.21531 | 4300 ft | 162 kts | 3° |
| 2026-04-22 19:44 | 52.89312 | 8.21638 | 4312 ft | 160 kts | 2° |
| 2026-04-22 19:44 | 52.90403 | 8.21714 | 4288 ft | 161 kts | 0° |
| 2026-04-22 19:44 | 52.91539 | 8.21792 | 4203 ft | 166 kts | 3° |
| 2026-04-22 19:44 | 52.92685 | 8.21949 | 4216 ft | 164 kts | 5° |
| 2026-04-22 19:45 | 52.93798 | 8.22202 | 4247 ft | 161 kts | 8° |
| 2026-04-22 19:45 | 52.94888 | 8.22547 | 4278 ft | 159 kts | 11° |
| 2026-04-22 19:45 | 52.95978 | 8.22953 | 4276 ft | 162 kts | 11° |
| 2026-04-22 19:45 | 52.97084 | 8.23329 | 4275 ft | 163 kts | 9° |
| 2026-04-22 19:46 | 52.98213 | 8.23555 | 4203 ft | 167 kts | 2° |
| 2026-04-22 19:46 | 52.99373 | 8.23525 | 4103 ft | 167 kts | 358° |
| 2026-04-22 19:46 | 53.00532 | 8.23453 | 4039 ft | 165 kts | 357° |
| 2026-04-22 19:46 | 53.01666 | 8.23380 | 3976 ft | 165 kts | 356° |
| 2026-04-22 19:47 | 53.02829 | 8.23247 | 3870 ft | 167 kts | 354° |
| 2026-04-22 19:47 | 53.03975 | 8.23010 | 3883 ft | 160 kts | 351° |
| 2026-04-22 19:47 | 53.04698 | 8.22828 | 4040 ft | 153 kts | 352° |
| 2026-04-22 19:47 | 53.06089 | 8.22513 | 4095 ft | 154 kts | 352° |
| 2026-04-22 19:48 | 53.07142 | 8.22247 | 4152 ft | 153 kts | 349° |
| 2026-04-22 19:48 | 53.08211 | 8.21950 | 4098 ft | 160 kts | 352° |
| 2026-04-22 19:48 | 53.09326 | 8.21759 | 4103 ft | 159 kts | 356° |
| 2026-04-22 19:48 | 53.10073 | 8.21694 | 4092 ft | 160 kts | 358° |
| 2026-04-22 19:49 | 53.11555 | 8.21633 | 4141 ft | 155 kts | 356° |
| 2026-04-22 19:49 | 53.12587 | 8.21492 | 4349 ft | 147 kts | 354° |
| 2026-04-22 19:49 | 53.13284 | 8.21409 | 4338 ft | 150 kts | 356° |
| 2026-04-22 19:49 | 53.14332 | 8.21362 | 4372 ft | 153 kts | 359° |
| 2026-04-22 19:50 | 53.15425 | 8.21376 | 4284 ft | 160 kts | 0° |
| 2026-04-22 19:50 | 53.16544 | 8.21350 | 4271 ft | 160 kts | 356° |
| 2026-04-22 19:50 | 53.17686 | 8.21169 | 4056 ft | 170 kts | 351° |
| 2026-04-22 19:50 | 53.18825 | 8.20822 | 4112 ft | 161 kts | 345° |
| 2026-04-22 19:51 | 53.19834 | 8.20019 | 4039 ft | 163 kts | 329° |
| 2026-04-22 19:51 | 53.20867 | 8.19434 | 4095 ft | 158 kts | 351° |
| 2026-04-22 19:51 | 53.21977 | 8.19363 | 4036 ft | 160 kts | 4° |
| 2026-04-22 19:51 | 53.23055 | 8.19667 | 4136 ft | 156 kts | 10° |
| 2026-04-22 19:52 | 53.24108 | 8.20059 | 4192 ft | 154 kts | 11° |
| 2026-04-22 19:52 | 53.25163 | 8.20424 | 4217 ft | 155 kts | 9° |
| 2026-04-22 19:52 | 53.26232 | 8.20688 | 4224 ft | 155 kts | 6° |
| 2026-04-22 19:52 | 53.27313 | 8.20858 | 4238 ft | 157 kts | 4° |
| 2026-04-22 19:53 | 53.28404 | 8.20950 | 4236 ft | 158 kts | 1° |
| 2026-04-22 19:53 | 53.29503 | 8.20999 | 4224 ft | 158 kts | 0° |
| 2026-04-22 19:53 | 53.30596 | 8.21021 | 4229 ft | 157 kts | 360° |
| 2026-04-22 19:53 | 53.31691 | 8.21027 | 4244 ft | 157 kts | 359° |
| 2026-04-22 19:54 | 53.32788 | 8.21031 | 4248 ft | 159 kts | 359° |
| 2026-04-22 19:54 | 53.33892 | 8.21030 | 4247 ft | 159 kts | 360° |
| 2026-04-22 19:54 | 53.35003 | 8.21028 | 4241 ft | 160 kts | 0° |
| 2026-04-22 19:54 | 53.36113 | 8.21022 | 4241 ft | 159 kts | 359° |
| 2026-04-22 19:55 | 53.37224 | 8.21018 | 4236 ft | 159 kts | 359° |
| 2026-04-22 19:55 | 53.38325 | 8.21018 | 4234 ft | 158 kts | 359° |
| 2026-04-22 19:55 | 53.39431 | 8.21016 | 4235 ft | 159 kts | 359° |
| 2026-04-22 19:55 | 53.40540 | 8.21013 | 4236 ft | 160 kts | 360° |
| 2026-04-22 19:56 | 53.41656 | 8.21013 | 4234 ft | 160 kts | 359° |
| 2026-04-22 19:56 | 53.42768 | 8.21010 | 4233 ft | 160 kts | 359° |
| 2026-04-22 19:56 | 53.43878 | 8.21008 | 4232 ft | 159 kts | 359° |
| 2026-04-22 19:56 | 53.44984 | 8.21004 | 4235 ft | 159 kts | 359° |
| 2026-04-22 19:57 | 53.46090 | 8.21002 | 4234 ft | 159 kts | 360° |
| 2026-04-22 19:57 | 53.47198 | 8.20996 | 4232 ft | 159 kts | 359° |
| 2026-04-22 19:57 | 53.48301 | 8.20994 | 4239 ft | 158 kts | 360° |
| 2026-04-22 19:57 | 53.49401 | 8.20992 | 4239 ft | 158 kts | 360° |
| 2026-04-22 19:58 | 53.50494 | 8.20989 | 4239 ft | 157 kts | 359° |
| 2026-04-22 19:58 | 53.51579 | 8.20808 | 4236 ft | 157 kts | 348° |
| 2026-04-22 19:58 | 53.52638 | 8.20341 | 4242 ft | 158 kts | 346° |
| 2026-04-22 19:58 | 53.53703 | 8.19865 | 4245 ft | 159 kts | 346° |
| 2026-04-22 19:59 | 53.54773 | 8.19392 | 4240 ft | 159 kts | 346° |
| 2026-04-22 20:00 | 53.61129 | 8.16563 | 4243 ft | 158 kts | 346° |
| 2026-04-22 20:00 | 53.62189 | 8.16093 | 4235 ft | 158 kts | 346° |
| 2026-04-22 20:01 | 53.63250 | 8.15621 | 4236 ft | 157 kts | 346° |
| 2026-04-22 20:01 | 53.64304 | 8.15151 | 4239 ft | 156 kts | 346° |
| 2026-04-22 20:01 | 53.65359 | 8.14680 | 4241 ft | 157 kts | 346° |
| 2026-04-22 20:01 | 53.66410 | 8.14376 | 3893 ft | 157 kts | 22° |
| 2026-04-22 20:02 | 53.67106 | 8.15702 | 3282 ft | 157 kts | 68° |
| 2026-04-22 20:02 | 53.67519 | 8.17461 | 3333 ft | 161 kts | 43° |
| 2026-04-22 20:02 | 53.68438 | 8.18419 | 3372 ft | 154 kts | 9° |
| 2026-04-22 20:02 | 53.69523 | 8.18671 | 3277 ft | 161 kts | 6° |
| 2026-04-22 20:03 | 53.70590 | 8.18319 | 3261 ft | 160 kts | 328° |
| 2026-04-22 20:03 | 53.71286 | 8.16945 | 3487 ft | 150 kts | 305° |
| 2026-04-22 20:03 | 53.71821 | 8.15449 | 3748 ft | 144 kts | 304° |
| 2026-04-22 20:03 | 53.72309 | 8.14028 | 3995 ft | 140 kts | 304° |
| 2026-04-22 20:04 | 53.72866 | 8.12730 | 4237 ft | 135 kts | 316° |
| 2026-04-22 20:04 | 53.73609 | 8.11679 | 4265 ft | 144 kts | 330° |
| 2026-04-22 20:04 | 53.74528 | 8.10872 | 4280 ft | 150 kts | 338° |
| 2026-04-22 20:04 | 53.75500 | 8.10258 | 4290 ft | 152 kts | 343° |
| 2026-04-22 20:05 | 53.76523 | 8.09726 | 4287 ft | 155 kts | 345° |
| 2026-04-22 20:05 | 53.77568 | 8.09229 | 4292 ft | 156 kts | 346° |
| 2026-04-22 20:05 | 53.78622 | 8.08762 | 4294 ft | 158 kts | 346° |
| 2026-04-22 20:05 | 53.79689 | 8.08310 | 4298 ft | 159 kts | 347° |
| 2026-04-22 20:06 | 53.80761 | 8.07856 | 4300 ft | 159 kts | 346° |
| 2026-04-22 20:06 | 53.81834 | 8.07401 | 4298 ft | 159 kts | 347° |
| 2026-04-22 20:06 | 53.82912 | 8.07039 | 4297 ft | 157 kts | 359° |
| 2026-04-22 20:06 | 53.83999 | 8.07268 | 4297 ft | 158 kts | 8° |
| 2026-04-22 20:07 | 53.85085 | 8.07578 | 4296 ft | 159 kts | 9° |
| 2026-04-22 20:07 | 53.86180 | 8.07891 | 4297 ft | 160 kts | 8° |
| 2026-04-22 20:07 | 53.87272 | 8.08206 | 4296 ft | 160 kts | 8° |
| 2026-04-22 20:07 | 53.88403 | 8.08532 | 4058 ft | 170 kts | 8° |
| 2026-04-22 20:08 | 53.89605 | 8.08877 | 3805 ft | 175 kts | 8° |
| 2026-04-22 20:08 | 53.90819 | 8.09224 | 3553 ft | 179 kts | 8° |
| 2026-04-22 20:08 | 53.92039 | 8.09574 | 3436 ft | 174 kts | 7° |
| 2026-04-22 20:08 | 53.93210 | 8.09907 | 3416 ft | 168 kts | 7° |
| 2026-04-22 20:09 | 53.94342 | 8.10232 | 3404 ft | 163 kts | 8° |
| 2026-04-22 20:09 | 53.95439 | 8.10542 | 3397 ft | 161 kts | 8° |
| 2026-04-22 20:09 | 53.96556 | 8.10858 | 3392 ft | 160 kts | 7° |
| 2026-04-22 20:09 | 53.97640 | 8.11169 | 3401 ft | 160 kts | 7° |
| 2026-04-22 20:10 | 53.98751 | 8.11488 | 3402 ft | 159 kts | 7° |
| 2026-04-22 20:10 | 53.99840 | 8.11798 | 3401 ft | 158 kts | 6° |
| 2026-04-22 20:10 | 54.00931 | 8.11826 | 3401 ft | 157 kts | 349° |
| 2026-04-22 20:10 | 54.01966 | 8.11264 | 3404 ft | 157 kts | 335° |
| 2026-04-22 20:11 | 54.02924 | 8.10338 | 3372 ft | 161 kts | 328° |
| 2026-04-22 20:11 | 54.03857 | 8.09240 | 3250 ft | 165 kts | 325° |
| 2026-04-22 20:11 | 54.04790 | 8.08094 | 3128 ft | 166 kts | 325° |
| 2026-04-22 20:11 | 54.05735 | 8.06948 | 3006 ft | 168 kts | 325° |
| 2026-04-22 20:12 | 54.06683 | 8.05809 | 2883 ft | 166 kts | 325° |
| 2026-04-22 20:12 | 54.07627 | 8.04673 | 2761 ft | 166 kts | 325° |
| 2026-04-22 20:12 | 54.08250 | 8.03916 | 2689 ft | 166 kts | 325° |
| 2026-04-22 20:12 | 54.09518 | 8.02383 | 2525 ft | 167 kts | 325° |
| 2026-04-22 20:13 | 54.10463 | 8.01242 | 2397 ft | 167 kts | 325° |
| 2026-04-22 20:13 | 54.11408 | 8.00094 | 2261 ft | 167 kts | 324° |
| 2026-04-22 20:13 | 54.12355 | 7.98942 | 2127 ft | 166 kts | 324° |
| 2026-04-22 20:13 | 54.13252 | 7.97862 | 1979 ft | 150 kts | 325° |
| 2026-04-22 20:14 | 54.14022 | 7.96924 | 1835 ft | 123 kts | 324° |
| 2026-04-22 20:14 | 54.14656 | 7.96137 | 1668 ft | 99 kts | 324° |
| 2026-04-22 20:14 | 54.15163 | 7.95475 | 1356 ft | 89 kts | 324° |
| 2026-04-22 20:14 | 54.15629 | 7.94837 | 1130 ft | 85 kts | 323° |
| 2026-04-22 20:15 | 54.16087 | 7.94202 | 913 ft | 85 kts | 324° |
| 2026-04-22 20:15 | 54.16575 | 7.93644 | 712 ft | 87 kts | 328° |
| 2026-04-22 20:15 | 54.17100 | 7.93099 | 450 ft | 88 kts | 327° |
| 2026-04-22 20:15 | 54.17605 | 7.92542 | 270 ft | 86 kts | 324° |
| 2026-04-22 20:16 | 54.18099 | 7.91957 | 73 ft | 86 kts | 323° |
| 2026-04-22 20:16 | 54.18531 | 7.91417 | 5 ft | 61 kts | 324° |
| 2026-04-22 20:16 | 54.18658 | 7.91295 | 7 ft | 7 kts | 135° |
| 2026-04-22 20:16 | 54.18597 | 7.91398 | 4 ft | 16 kts | 72° |
| 2026-04-22 20:17 | 54.18637 | 7.91399 | 4 ft | 5 kts | 2° |
| 2026-04-22 20:17 | 54.18660 | 7.91443 | 5 ft | 2 kts | 89° |
| 2026-04-22 20:17 | 54.18656 | 7.91458 | 4 ft | 0 kts | 144° |
| 2026-04-22 20:17 | 54.16238 | 7.94011 | 846 ft | 85 kts | 326° |
| 2026-04-22 20:18 | 54.16353 | 7.93878 | 811 ft | 85 kts | 326° |
| 2026-04-22 20:18 | 54.16868 | 7.93340 | 586 ft | 87 kts | 327° |
| 2026-04-22 20:18 | 54.17387 | 7.92791 | 353 ft | 85 kts | 327° |
| 2026-04-22 20:18 | 54.17880 | 7.92220 | 144 ft | 87 kts | 324° |
| 2026-04-22 20:19 | 54.18360 | 7.91631 | 16 ft | 77 kts | 321° |
| 2026-04-22 20:19 | 54.18651 | 7.91279 | 7 ft | 12 kts | 333° |
| 2026-04-22 20:19 | 54.17427 | 7.92748 | 344 ft | 78 kts | 326° |
| 2026-04-22 20:19 | 54.17639 | 7.92502 | 255 ft | 86 kts | 324° |
| 2026-04-22 20:20 | 54.18133 | 7.91917 | 64 ft | 86 kts | 323° |
| 2026-04-22 20:20 | 54.18555 | 7.91388 | 5 ft | 56 kts | 325° |
| 2026-04-22 20:20 | 54.18654 | 7.91300 | 7 ft | 8 kts | 144° |
| 2026-04-22 20:20 | 54.18601 | 7.91408 | 4 ft | 12 kts | 40° |
| 2026-04-22 20:21 | 54.18653 | 7.91413 | 4 ft | 8 kts | 40° |
| 2026-04-22 20:21 | 54.18656 | 7.91458 | 4 ft | 0 kts | 144° |